sensor_id;sensor_type;location;lat;lon;timestamp;P1;durP1;ratioP1;P2;durP2;ratioP2
20890;SDS011;10605;52.968;8.844;2022-12-07T00:01:04;72.85;;;30.58;;
20890;SDS011;10605;52.968;8.844;2022-12-07T00:03:36;64.10;;;29.35;;
20890;SDS011;10605;52.968;8.844;2022-12-07T00:06:03;57.92;;;27.67;;
20890;SDS011;10605;52.968;8.844;2022-12-07T00:08:31;60.58;;;26.80;;
20890;SDS011;10605;52.968;8.844;2022-12-07T00:11:19;46.97;;;24.15;;
20890;SDS011;10605;52.968;8.844;2022-12-07T00:13:44;45.63;;;23.48;;
20890;SDS011;10605;52.968;8.844;2022-12-07T00:16:11;48.65;;;22.63;;
20890;SDS011;10605;52.968;8.844;2022-12-07T00:18:39;45.15;;;23.27;;
20890;SDS011;10605;52.968;8.844;2022-12-07T00:21:06;48.05;;;22.80;;
20890;SDS011;10605;52.968;8.844;2022-12-07T00:23:46;42.45;;;21.65;;
20890;SDS011;10605;52.968;8.844;2022-12-07T00:28:49;44.58;;;21.48;;
20890;SDS011;10605;52.968;8.844;2022-12-07T00:31:22;42.13;;;21.58;;
20890;SDS011;10605;52.968;8.844;2022-12-07T00:33:49;40.92;;;19.98;;
20890;SDS011;10605;52.968;8.844;2022-12-07T00:36:16;43.85;;;21.52;;
20890;SDS011;10605;52.968;8.844;2022-12-07T00:38:44;38.10;;;19.42;;
20890;SDS011;10605;52.968;8.844;2022-12-07T00:41:16;40.88;;;19.77;;
20890;SDS011;10605;52.968;8.844;2022-12-07T00:43:44;46.78;;;20.45;;
20890;SDS011;10605;52.968;8.844;2022-12-07T00:46:10;44.15;;;19.90;;
20890;SDS011;10605;52.968;8.844;2022-12-07T00:48:37;40.08;;;19.05;;
20890;SDS011;10605;52.968;8.844;2022-12-07T00:51:03;44.10;;;19.48;;
20890;SDS011;10605;52.968;8.844;2022-12-07T00:53:30;44.80;;;19.85;;
20890;SDS011;10605;52.968;8.844;2022-12-07T00:55:58;39.33;;;19.40;;
20890;SDS011;10605;52.968;8.844;2022-12-07T00:58:33;42.13;;;19.67;;
20890;SDS011;10605;52.968;8.844;2022-12-07T01:01:02;47.67;;;19.98;;
20890;SDS011;10605;52.968;8.844;2022-12-07T01:03:29;45.25;;;20.02;;
20890;SDS011;10605;52.968;8.844;2022-12-07T01:05:55;50.08;;;20.05;;
20890;SDS011;10605;52.968;8.844;2022-12-07T01:08:22;50.90;;;18.90;;
20890;SDS011;10605;52.968;8.844;2022-12-07T01:10:49;47.08;;;19.38;;
20890;SDS011;10605;52.968;8.844;2022-12-07T01:13:22;41.05;;;18.38;;
20890;SDS011;10605;52.968;8.844;2022-12-07T01:15:47;43.40;;;18.98;;
20890;SDS011;10605;52.968;8.844;2022-12-07T01:18:13;41.28;;;18.20;;
20890;SDS011;10605;52.968;8.844;2022-12-07T01:20:39;38.03;;;19.10;;
20890;SDS011;10605;52.968;8.844;2022-12-07T01:23:05;40.45;;;18.92;;
20890;SDS011;10605;52.968;8.844;2022-12-07T01:25:31;41.53;;;17.67;;
20890;SDS011;10605;52.968;8.844;2022-12-07T01:27:57;42.22;;;18.23;;
20890;SDS011;10605;52.968;8.844;2022-12-07T01:30:22;36.83;;;17.08;;
20890;SDS011;10605;52.968;8.844;2022-12-07T01:32:48;36.75;;;17.08;;
20890;SDS011;10605;52.968;8.844;2022-12-07T01:35:14;37.65;;;16.25;;
20890;SDS011;10605;52.968;8.844;2022-12-07T01:37:39;38.75;;;16.08;;
20890;SDS011;10605;52.968;8.844;2022-12-07T01:40:06;41.20;;;16.52;;
20890;SDS011;10605;52.968;8.844;2022-12-07T01:42:33;34.38;;;14.98;;
20890;SDS011;10605;52.968;8.844;2022-12-07T01:45:30;33.60;;;14.70;;
20890;SDS011;10605;52.968;8.844;2022-12-07T01:48:04;26.52;;;12.07;;
20890;SDS011;10605;52.968;8.844;2022-12-07T01:50:31;26.77;;;12.57;;
20890;SDS011;10605;52.968;8.844;2022-12-07T01:52:57;26.77;;;12.02;;
20890;SDS011;10605;52.968;8.844;2022-12-07T01:55:25;27.13;;;10.80;;
20890;SDS011;10605;52.968;8.844;2022-12-07T01:57:52;30.67;;;11.55;;
20890;SDS011;10605;52.968;8.844;2022-12-07T02:00:19;33.95;;;11.73;;
20890;SDS011;10605;52.968;8.844;2022-12-07T02:02:47;21.63;;;10.52;;
20890;SDS011;10605;52.968;8.844;2022-12-07T02:05:19;29.30;;;12.60;;
20890;SDS011;10605;52.968;8.844;2022-12-07T02:07:45;32.08;;;10.93;;
20890;SDS011;10605;52.968;8.844;2022-12-07T02:10:16;26.48;;;10.88;;
20890;SDS011;10605;52.968;8.844;2022-12-07T02:12:43;24.73;;;10.93;;
20890;SDS011;10605;52.968;8.844;2022-12-07T02:15:11;26.50;;;11.30;;
20890;SDS011;10605;52.968;8.844;2022-12-07T02:30:48;19.67;;;9.50;;
20890;SDS011;10605;52.968;8.844;2022-12-07T02:33:28;23.27;;;10.52;;
20890;SDS011;10605;52.968;8.844;2022-12-07T02:41:20;26.00;;;10.55;;
20890;SDS011;10605;52.968;8.844;2022-12-07T02:43:52;21.42;;;10.93;;
20890;SDS011;10605;52.968;8.844;2022-12-07T02:46:38;20.33;;;10.43;;
20890;SDS011;10605;52.968;8.844;2022-12-07T02:49:07;28.63;;;11.13;;
20890;SDS011;10605;52.968;8.844;2022-12-07T02:51:38;28.48;;;10.50;;
20890;SDS011;10605;52.968;8.844;2022-12-07T02:54:10;26.08;;;11.60;;
20890;SDS011;10605;52.968;8.844;2022-12-07T02:59:14;29.77;;;11.18;;
20890;SDS011;10605;52.968;8.844;2022-12-07T03:18:22;32.28;;;10.57;;
20890;SDS011;10605;52.968;8.844;2022-12-07T03:20:51;24.33;;;10.18;;
20890;SDS011;10605;52.968;8.844;2022-12-07T03:23:20;23.88;;;9.57;;
20890;SDS011;10605;52.968;8.844;2022-12-07T03:25:49;22.02;;;8.15;;
20890;SDS011;10605;52.968;8.844;2022-12-07T03:28:22;17.95;;;7.75;;
20890;SDS011;10605;52.968;8.844;2022-12-07T03:34:09;17.83;;;6.07;;
20890;SDS011;10605;52.968;8.844;2022-12-07T03:36:50;15.05;;;5.18;;
20890;SDS011;10605;52.968;8.844;2022-12-07T03:42:00;11.57;;;5.38;;
20890;SDS011;10605;52.968;8.844;2022-12-07T03:44:28;11.05;;;5.65;;
20890;SDS011;10605;52.968;8.844;2022-12-07T03:49:41;17.73;;;6.30;;
20890;SDS011;10605;52.968;8.844;2022-12-07T03:54:40;19.77;;;8.00;;
20890;SDS011;10605;52.968;8.844;2022-12-07T03:57:16;18.10;;;7.40;;
20890;SDS011;10605;52.968;8.844;2022-12-07T03:59:43;20.70;;;8.60;;
20890;SDS011;10605;52.968;8.844;2022-12-07T04:02:11;22.67;;;8.90;;
20890;SDS011;10605;52.968;8.844;2022-12-07T04:04:38;26.27;;;8.88;;
20890;SDS011;10605;52.968;8.844;2022-12-07T04:07:04;19.40;;;9.55;;
20890;SDS011;10605;52.968;8.844;2022-12-07T04:09:30;23.17;;;8.68;;
20890;SDS011;10605;52.968;8.844;2022-12-07T04:11:55;15.20;;;8.88;;
20890;SDS011;10605;52.968;8.844;2022-12-07T04:14:21;21.23;;;9.52;;
20890;SDS011;10605;52.968;8.844;2022-12-07T04:19:14;27.60;;;11.25;;
20890;SDS011;10605;52.968;8.844;2022-12-07T04:21:41;24.05;;;10.65;;
20890;SDS011;10605;52.968;8.844;2022-12-07T04:24:07;20.23;;;9.30;;
20890;SDS011;10605;52.968;8.844;2022-12-07T04:26:33;21.23;;;10.88;;
20890;SDS011;10605;52.968;8.844;2022-12-07T04:28:58;22.55;;;10.60;;
20890;SDS011;10605;52.968;8.844;2022-12-07T04:31:24;20.52;;;10.55;;
20890;SDS011;10605;52.968;8.844;2022-12-07T04:33:50;21.85;;;9.63;;
20890;SDS011;10605;52.968;8.844;2022-12-07T04:36:15;23.00;;;10.57;;
20890;SDS011;10605;52.968;8.844;2022-12-07T04:38:41;21.95;;;9.45;;
20890;SDS011;10605;52.968;8.844;2022-12-07T04:41:07;19.48;;;10.07;;
20890;SDS011;10605;52.968;8.844;2022-12-07T04:43:34;20.88;;;8.95;;
20890;SDS011;10605;52.968;8.844;2022-12-07T04:46:00;16.98;;;9.27;;
20890;SDS011;10605;52.968;8.844;2022-12-07T04:48:26;18.02;;;8.68;;
20890;SDS011;10605;52.968;8.844;2022-12-07T04:50:52;20.95;;;9.18;;
20890;SDS011;10605;52.968;8.844;2022-12-07T04:53:18;20.77;;;8.32;;
20890;SDS011;10605;52.968;8.844;2022-12-07T04:55:44;16.67;;;7.68;;
20890;SDS011;10605;52.968;8.844;2022-12-07T04:58:11;24.60;;;8.27;;
20890;SDS011;10605;52.968;8.844;2022-12-07T05:00:37;22.38;;;8.48;;
20890;SDS011;10605;52.968;8.844;2022-12-07T05:03:03;17.20;;;8.18;;
20890;SDS011;10605;52.968;8.844;2022-12-07T05:05:29;19.05;;;7.93;;
20890;SDS011;10605;52.968;8.844;2022-12-07T05:07:54;22.08;;;7.97;;
20890;SDS011;10605;52.968;8.844;2022-12-07T05:10:20;15.25;;;7.60;;
20890;SDS011;10605;52.968;8.844;2022-12-07T05:12:46;25.00;;;8.32;;
20890;SDS011;10605;52.968;8.844;2022-12-07T05:15:13;14.13;;;7.88;;
20890;SDS011;10605;52.968;8.844;2022-12-07T05:17:39;12.95;;;7.22;;
20890;SDS011;10605;52.968;8.844;2022-12-07T05:20:05;13.50;;;6.90;;
20890;SDS011;10605;52.968;8.844;2022-12-07T05:22:31;17.90;;;7.45;;
20890;SDS011;10605;52.968;8.844;2022-12-07T05:24:57;11.88;;;6.82;;
20890;SDS011;10605;52.968;8.844;2022-12-07T05:27:23;16.35;;;6.07;;
20890;SDS011;10605;52.968;8.844;2022-12-07T05:29:49;13.80;;;5.20;;
20890;SDS011;10605;52.968;8.844;2022-12-07T05:32:15;16.27;;;6.10;;
20890;SDS011;10605;52.968;8.844;2022-12-07T05:34:41;13.23;;;4.63;;
20890;SDS011;10605;52.968;8.844;2022-12-07T05:37:07;10.88;;;5.22;;
20890;SDS011;10605;52.968;8.844;2022-12-07T05:39:33;12.75;;;5.00;;
20890;SDS011;10605;52.968;8.844;2022-12-07T05:41:58;13.55;;;4.85;;
20890;SDS011;10605;52.968;8.844;2022-12-07T05:44:40;14.13;;;4.35;;
20890;SDS011;10605;52.968;8.844;2022-12-07T05:47:07;7.47;;;4.50;;
20890;SDS011;10605;52.968;8.844;2022-12-07T05:49:32;10.32;;;4.05;;
20890;SDS011;10605;52.968;8.844;2022-12-07T05:51:58;11.30;;;4.32;;
20890;SDS011;10605;52.968;8.844;2022-12-07T05:54:24;14.40;;;4.53;;
20890;SDS011;10605;52.968;8.844;2022-12-07T05:56:50;9.05;;;3.70;;
20890;SDS011;10605;52.968;8.844;2022-12-07T05:59:15;12.15;;;4.50;;
20890;SDS011;10605;52.968;8.844;2022-12-07T06:01:47;8.63;;;3.83;;
20890;SDS011;10605;52.968;8.844;2022-12-07T06:04:17;11.70;;;3.65;;
20890;SDS011;10605;52.968;8.844;2022-12-07T06:06:43;12.63;;;4.30;;
20890;SDS011;10605;52.968;8.844;2022-12-07T06:09:09;15.80;;;4.22;;
20890;SDS011;10605;52.968;8.844;2022-12-07T06:11:35;7.88;;;3.78;;
20890;SDS011;10605;52.968;8.844;2022-12-07T06:14:19;9.60;;;3.42;;
20890;SDS011;10605;52.968;8.844;2022-12-07T06:16:45;14.50;;;4.40;;
20890;SDS011;10605;52.968;8.844;2022-12-07T06:19:11;10.25;;;3.83;;
20890;SDS011;10605;52.968;8.844;2022-12-07T06:21:37;9.75;;;4.20;;
20890;SDS011;10605;52.968;8.844;2022-12-07T06:24:02;5.82;;;3.58;;
20890;SDS011;10605;52.968;8.844;2022-12-07T06:26:28;17.02;;;4.97;;
20890;SDS011;10605;52.968;8.844;2022-12-07T06:28:54;11.05;;;3.95;;
20890;SDS011;10605;52.968;8.844;2022-12-07T06:31:20;15.43;;;4.70;;
20890;SDS011;10605;52.968;8.844;2022-12-07T06:33:45;15.13;;;4.45;;
20890;SDS011;10605;52.968;8.844;2022-12-07T06:36:11;11.18;;;4.95;;
20890;SDS011;10605;52.968;8.844;2022-12-07T06:38:37;17.70;;;4.85;;
20890;SDS011;10605;52.968;8.844;2022-12-07T06:41:06;10.10;;;4.55;;
20890;SDS011;10605;52.968;8.844;2022-12-07T06:43:32;12.02;;;3.92;;
20890;SDS011;10605;52.968;8.844;2022-12-07T06:45:57;16.33;;;4.13;;
20890;SDS011;10605;52.968;8.844;2022-12-07T06:48:23;10.45;;;3.90;;
20890;SDS011;10605;52.968;8.844;2022-12-07T06:50:49;11.60;;;3.30;;
20890;SDS011;10605;52.968;8.844;2022-12-07T06:53:15;10.98;;;3.47;;
20890;SDS011;10605;52.968;8.844;2022-12-07T06:55:40;8.32;;;3.28;;
20890;SDS011;10605;52.968;8.844;2022-12-07T06:58:06;15.15;;;3.78;;
20890;SDS011;10605;52.968;8.844;2022-12-07T07:00:32;14.80;;;3.88;;
20890;SDS011;10605;52.968;8.844;2022-12-07T07:02:59;10.60;;;3.33;;
20890;SDS011;10605;52.968;8.844;2022-12-07T07:05:25;13.70;;;3.55;;
20890;SDS011;10605;52.968;8.844;2022-12-07T07:07:51;18.85;;;4.13;;
20890;SDS011;10605;52.968;8.844;2022-12-07T07:10:17;15.13;;;3.10;;
20890;SDS011;10605;52.968;8.844;2022-12-07T07:12:42;8.70;;;3.42;;
20890;SDS011;10605;52.968;8.844;2022-12-07T07:15:08;9.43;;;3.70;;
20890;SDS011;10605;52.968;8.844;2022-12-07T07:17:34;13.88;;;4.72;;
20890;SDS011;10605;52.968;8.844;2022-12-07T07:20:00;12.73;;;4.15;;
20890;SDS011;10605;52.968;8.844;2022-12-07T07:22:26;16.50;;;3.97;;
20890;SDS011;10605;52.968;8.844;2022-12-07T07:24:51;7.38;;;3.58;;
20890;SDS011;10605;52.968;8.844;2022-12-07T07:27:17;12.60;;;4.07;;
20890;SDS011;10605;52.968;8.844;2022-12-07T07:29:42;10.60;;;3.58;;
20890;SDS011;10605;52.968;8.844;2022-12-07T07:32:08;10.73;;;3.75;;
20890;SDS011;10605;52.968;8.844;2022-12-07T07:34:34;9.25;;;3.40;;
20890;SDS011;10605;52.968;8.844;2022-12-07T07:36:59;12.00;;;4.03;;
20890;SDS011;10605;52.968;8.844;2022-12-07T07:39:25;12.20;;;3.03;;
20890;SDS011;10605;52.968;8.844;2022-12-07T07:41:51;10.80;;;3.10;;
20890;SDS011;10605;52.968;8.844;2022-12-07T07:44:16;7.38;;;2.58;;
20890;SDS011;10605;52.968;8.844;2022-12-07T07:46:42;8.23;;;2.75;;
20890;SDS011;10605;52.968;8.844;2022-12-07T07:49:08;10.20;;;2.83;;
20890;SDS011;10605;52.968;8.844;2022-12-07T07:51:35;12.55;;;3.00;;
20890;SDS011;10605;52.968;8.844;2022-12-07T07:54:02;6.57;;;2.88;;
20890;SDS011;10605;52.968;8.844;2022-12-07T07:56:28;5.57;;;2.78;;
20890;SDS011;10605;52.968;8.844;2022-12-07T07:58:54;7.63;;;3.42;;
20890;SDS011;10605;52.968;8.844;2022-12-07T08:01:19;11.00;;;2.75;;
20890;SDS011;10605;52.968;8.844;2022-12-07T08:03:48;11.90;;;3.10;;
20890;SDS011;10605;52.968;8.844;2022-12-07T08:06:14;7.90;;;3.70;;
20890;SDS011;10605;52.968;8.844;2022-12-07T08:08:40;16.20;;;4.75;;
20890;SDS011;10605;52.968;8.844;2022-12-07T08:11:07;14.52;;;3.88;;
20890;SDS011;10605;52.968;8.844;2022-12-07T08:13:34;12.77;;;3.95;;
20890;SDS011;10605;52.968;8.844;2022-12-07T08:16:04;15.43;;;4.55;;
20890;SDS011;10605;52.968;8.844;2022-12-07T08:18:31;5.55;;;2.80;;
20890;SDS011;10605;52.968;8.844;2022-12-07T08:21:03;7.15;;;2.30;;
20890;SDS011;10605;52.968;8.844;2022-12-07T08:23:30;10.93;;;2.00;;
20890;SDS011;10605;52.968;8.844;2022-12-07T08:26:00;10.38;;;1.90;;
20890;SDS011;10605;52.968;8.844;2022-12-07T08:28:27;6.10;;;1.98;;
20890;SDS011;10605;52.968;8.844;2022-12-07T08:30:58;3.92;;;1.60;;
20890;SDS011;10605;52.968;8.844;2022-12-07T08:33:31;7.35;;;1.80;;
20890;SDS011;10605;52.968;8.844;2022-12-07T08:36:01;7.68;;;1.80;;
20890;SDS011;10605;52.968;8.844;2022-12-07T08:38:30;3.78;;;1.70;;
20890;SDS011;10605;52.968;8.844;2022-12-07T08:40:56;3.85;;;1.63;;
20890;SDS011;10605;52.968;8.844;2022-12-07T08:43:23;5.85;;;1.48;;
20890;SDS011;10605;52.968;8.844;2022-12-07T08:45:51;4.22;;;1.88;;
20890;SDS011;10605;52.968;8.844;2022-12-07T08:48:44;7.03;;;1.58;;
20890;SDS011;10605;52.968;8.844;2022-12-07T08:51:15;2.63;;;1.45;;
20890;SDS011;10605;52.968;8.844;2022-12-07T08:53:41;1.70;;;1.35;;
20890;SDS011;10605;52.968;8.844;2022-12-07T08:56:08;3.03;;;1.70;;
20890;SDS011;10605;52.968;8.844;2022-12-07T08:58:34;3.88;;;1.20;;
20890;SDS011;10605;52.968;8.844;2022-12-07T09:01:02;4.00;;;1.90;;
20890;SDS011;10605;52.968;8.844;2022-12-07T09:03:28;7.70;;;1.50;;
20890;SDS011;10605;52.968;8.844;2022-12-07T09:05:54;5.15;;;1.77;;
20890;SDS011;10605;52.968;8.844;2022-12-07T09:08:20;3.83;;;1.95;;
20890;SDS011;10605;52.968;8.844;2022-12-07T09:10:47;7.93;;;4.00;;
20890;SDS011;10605;52.968;8.844;2022-12-07T09:13:13;6.40;;;3.42;;
20890;SDS011;10605;52.968;8.844;2022-12-07T09:15:39;4.13;;;2.92;;
20890;SDS011;10605;52.968;8.844;2022-12-07T09:18:04;3.22;;;2.90;;
20890;SDS011;10605;52.968;8.844;2022-12-07T09:20:30;5.07;;;2.90;;
20890;SDS011;10605;52.968;8.844;2022-12-07T09:22:56;5.65;;;2.53;;
20890;SDS011;10605;52.968;8.844;2022-12-07T09:25:22;6.35;;;2.85;;
20890;SDS011;10605;52.968;8.844;2022-12-07T09:27:47;8.20;;;3.38;;
20890;SDS011;10605;52.968;8.844;2022-12-07T09:30:19;5.22;;;3.95;;
20890;SDS011;10605;52.968;8.844;2022-12-07T09:32:45;5.93;;;4.15;;
20890;SDS011;10605;52.968;8.844;2022-12-07T09:35:11;9.57;;;4.18;;
20890;SDS011;10605;52.968;8.844;2022-12-07T09:37:36;8.57;;;4.13;;
20890;SDS011;10605;52.968;8.844;2022-12-07T09:40:02;7.13;;;4.45;;
20890;SDS011;10605;52.968;8.844;2022-12-07T09:42:31;5.30;;;4.32;;
20890;SDS011;10605;52.968;8.844;2022-12-07T09:45:04;5.65;;;4.43;;
20890;SDS011;10605;52.968;8.844;2022-12-07T09:47:32;10.63;;;5.13;;
20890;SDS011;10605;52.968;8.844;2022-12-07T09:50:05;5.50;;;4.80;;
20890;SDS011;10605;52.968;8.844;2022-12-07T09:52:44;5.97;;;5.43;;
20890;SDS011;10605;52.968;8.844;2022-12-07T09:55:12;6.85;;;5.88;;
20890;SDS011;10605;52.968;8.844;2022-12-07T09:57:40;7.28;;;5.80;;
20890;SDS011;10605;52.968;8.844;2022-12-07T10:00:12;6.28;;;5.68;;
20890;SDS011;10605;52.968;8.844;2022-12-07T10:05:07;7.40;;;6.70;;
20890;SDS011;10605;52.968;8.844;2022-12-07T10:07:40;5.55;;;5.15;;
20890;SDS011;10605;52.968;8.844;2022-12-07T10:10:09;7.07;;;5.30;;
20890;SDS011;10605;52.968;8.844;2022-12-07T10:13:00;6.60;;;5.53;;
20890;SDS011;10605;52.968;8.844;2022-12-07T10:18:30;13.02;;;8.30;;
20890;SDS011;10605;52.968;8.844;2022-12-07T10:21:05;10.50;;;5.60;;
20890;SDS011;10605;52.968;8.844;2022-12-07T10:23:40;4.55;;;3.70;;
20890;SDS011;10605;52.968;8.844;2022-12-07T10:28:59;3.05;;;2.67;;
20890;SDS011;10605;52.968;8.844;2022-12-07T10:31:38;4.93;;;3.03;;
20890;SDS011;10605;52.968;8.844;2022-12-07T10:34:21;3.88;;;2.92;;
20890;SDS011;10605;52.968;8.844;2022-12-07T10:37:18;7.20;;;2.50;;
20890;SDS011;10605;52.968;8.844;2022-12-07T10:39:51;5.25;;;1.67;;
20890;SDS011;10605;52.968;8.844;2022-12-07T10:42:22;7.45;;;1.80;;
20890;SDS011;10605;52.968;8.844;2022-12-07T10:44:50;3.30;;;1.42;;
20890;SDS011;10605;52.968;8.844;2022-12-07T11:06:33;7.00;;;1.90;;
20890;SDS011;10605;52.968;8.844;2022-12-07T11:10:05;9.98;;;4.78;;
20890;SDS011;10605;52.968;8.844;2022-12-07T11:12:30;4.38;;;2.90;;
20890;SDS011;10605;52.968;8.844;2022-12-07T11:29:10;4.95;;;1.70;;
20890;SDS011;10605;52.968;8.844;2022-12-07T11:37:19;8.00;;;1.80;;
20890;SDS011;10605;52.968;8.844;2022-12-07T11:39:55;3.70;;;1.48;;
20890;SDS011;10605;52.968;8.844;2022-12-07T11:42:41;4.93;;;1.45;;
20890;SDS011;10605;52.968;8.844;2022-12-07T11:45:15;3.63;;;1.70;;
20890;SDS011;10605;52.968;8.844;2022-12-07T11:52:53;10.07;;;1.77;;
20890;SDS011;10605;52.968;8.844;2022-12-07T12:00:41;7.40;;;1.70;;
20890;SDS011;10605;52.968;8.844;2022-12-07T12:03:11;9.30;;;1.60;;
20890;SDS011;10605;52.968;8.844;2022-12-07T12:05:45;7.68;;;1.70;;
20890;SDS011;10605;52.968;8.844;2022-12-07T12:08:14;7.78;;;2.25;;
20890;SDS011;10605;52.968;8.844;2022-12-07T12:16:20;5.15;;;2.08;;
20890;SDS011;10605;52.968;8.844;2022-12-07T12:23:01;5.22;;;2.95;;
20890;SDS011;10605;52.968;8.844;2022-12-07T12:27:54;8.98;;;1.67;;
20890;SDS011;10605;52.968;8.844;2022-12-07T12:30:36;8.57;;;2.13;;
20890;SDS011;10605;52.968;8.844;2022-12-07T12:33:05;4.70;;;2.10;;
20890;SDS011;10605;52.968;8.844;2022-12-07T12:35:48;6.07;;;1.85;;
20890;SDS011;10605;52.968;8.844;2022-12-07T12:38:48;4.70;;;1.77;;
20890;SDS011;10605;52.968;8.844;2022-12-07T12:51:53;4.53;;;1.40;;
20890;SDS011;10605;52.968;8.844;2022-12-07T12:54:24;5.15;;;1.85;;
20890;SDS011;10605;52.968;8.844;2022-12-07T13:02:50;5.57;;;2.95;;
20890;SDS011;10605;52.968;8.844;2022-12-07T13:07:53;24.30;;;12.38;;
20890;SDS011;10605;52.968;8.844;2022-12-07T13:10:48;16.90;;;3.78;;
20890;SDS011;10605;52.968;8.844;2022-12-07T13:15:44;6.50;;;2.10;;
20890;SDS011;10605;52.968;8.844;2022-12-07T13:28:44;9.27;;;3.08;;
20890;SDS011;10605;52.968;8.844;2022-12-07T13:37:02;4.90;;;3.72;;
20890;SDS011;10605;52.968;8.844;2022-12-07T13:39:45;7.15;;;2.40;;
20890;SDS011;10605;52.968;8.844;2022-12-07T13:42:24;10.40;;;2.13;;
20890;SDS011;10605;52.968;8.844;2022-12-07T13:48:37;3.42;;;1.98;;
20890;SDS011;10605;52.968;8.844;2022-12-07T13:51:18;6.30;;;2.28;;
20890;SDS011;10605;52.968;8.844;2022-12-07T13:53:52;5.55;;;1.65;;
20890;SDS011;10605;52.968;8.844;2022-12-07T13:56:21;4.32;;;1.20;;
20890;SDS011;10605;52.968;8.844;2022-12-07T13:58:50;9.15;;;1.35;;
20890;SDS011;10605;52.968;8.844;2022-12-07T14:01:16;4.68;;;1.58;;
20890;SDS011;10605;52.968;8.844;2022-12-07T14:03:43;7.57;;;1.13;;
20890;SDS011;10605;52.968;8.844;2022-12-07T14:08:42;2.45;;;0.70;;
20890;SDS011;10605;52.968;8.844;2022-12-07T14:11:13;4.95;;;1.60;;
20890;SDS011;10605;52.968;8.844;2022-12-07T14:16:22;2.55;;;0.90;;
20890;SDS011;10605;52.968;8.844;2022-12-07T14:19:00;3.70;;;2.67;;
20890;SDS011;10605;52.968;8.844;2022-12-07T14:21:29;9.90;;;3.92;;
20890;SDS011;10605;52.968;8.844;2022-12-07T14:24:07;11.88;;;2.58;;
20890;SDS011;10605;52.968;8.844;2022-12-07T14:26:41;1.42;;;1.33;;
20890;SDS011;10605;52.968;8.844;2022-12-07T14:31:47;7.95;;;1.80;;
20890;SDS011;10605;52.968;8.844;2022-12-07T14:34:13;7.40;;;2.15;;
20890;SDS011;10605;52.968;8.844;2022-12-07T14:36:39;4.78;;;1.70;;
20890;SDS011;10605;52.968;8.844;2022-12-07T14:39:05;9.93;;;3.10;;
20890;SDS011;10605;52.968;8.844;2022-12-07T14:41:31;7.07;;;2.55;;
20890;SDS011;10605;52.968;8.844;2022-12-07T14:44:15;8.38;;;1.50;;
20890;SDS011;10605;52.968;8.844;2022-12-07T14:46:41;10.55;;;2.90;;
20890;SDS011;10605;52.968;8.844;2022-12-07T14:49:06;4.30;;;1.83;;
20890;SDS011;10605;52.968;8.844;2022-12-07T14:51:32;8.07;;;1.63;;
20890;SDS011;10605;52.968;8.844;2022-12-07T14:54:01;9.77;;;2.00;;
20890;SDS011;10605;52.968;8.844;2022-12-07T14:56:26;6.13;;;1.60;;
20890;SDS011;10605;52.968;8.844;2022-12-07T14:58:53;2.55;;;1.40;;
20890;SDS011;10605;52.968;8.844;2022-12-07T15:01:18;3.97;;;1.50;;
20890;SDS011;10605;52.968;8.844;2022-12-07T15:03:44;3.90;;;1.52;;
20890;SDS011;10605;52.968;8.844;2022-12-07T15:06:13;7.20;;;1.23;;
20890;SDS011;10605;52.968;8.844;2022-12-07T15:08:40;6.72;;;1.40;;
20890;SDS011;10605;52.968;8.844;2022-12-07T15:11:06;8.60;;;1.45;;
20890;SDS011;10605;52.968;8.844;2022-12-07T15:13:34;3.55;;;1.08;;
20890;SDS011;10605;52.968;8.844;2022-12-07T15:16:19;2.72;;;0.70;;
20890;SDS011;10605;52.968;8.844;2022-12-07T15:18:46;1.63;;;1.25;;
20890;SDS011;10605;52.968;8.844;2022-12-07T15:21:14;1.42;;;1.20;;
20890;SDS011;10605;52.968;8.844;2022-12-07T15:23:41;2.20;;;0.80;;
20890;SDS011;10605;52.968;8.844;2022-12-07T15:26:07;1.45;;;1.20;;
20890;SDS011;10605;52.968;8.844;2022-12-07T15:28:34;0.80;;;0.80;;
20890;SDS011;10605;52.968;8.844;2022-12-07T15:31:00;3.35;;;1.13;;
20890;SDS011;10605;52.968;8.844;2022-12-07T15:33:26;1.83;;;0.82;;
20890;SDS011;10605;52.968;8.844;2022-12-07T15:35:51;1.02;;;0.70;;
20890;SDS011;10605;52.968;8.844;2022-12-07T15:38:17;3.20;;;0.80;;
20890;SDS011;10605;52.968;8.844;2022-12-07T15:40:46;5.88;;;1.30;;
20890;SDS011;10605;52.968;8.844;2022-12-07T15:43:12;5.18;;;2.25;;
20890;SDS011;10605;52.968;8.844;2022-12-07T15:45:56;2.45;;;1.67;;
20890;SDS011;10605;52.968;8.844;2022-12-07T15:48:22;4.70;;;1.52;;
20890;SDS011;10605;52.968;8.844;2022-12-07T15:50:48;2.72;;;0.93;;
20890;SDS011;10605;52.968;8.844;2022-12-07T15:53:14;1.35;;;0.80;;
20890;SDS011;10605;52.968;8.844;2022-12-07T15:55:39;2.65;;;0.88;;
20890;SDS011;10605;52.968;8.844;2022-12-07T15:58:06;1.55;;;0.77;;
20890;SDS011;10605;52.968;8.844;2022-12-07T16:00:32;4.78;;;1.50;;
20890;SDS011;10605;52.968;8.844;2022-12-07T16:02:58;3.40;;;1.58;;
20890;SDS011;10605;52.968;8.844;2022-12-07T16:05:23;2.58;;;1.40;;
20890;SDS011;10605;52.968;8.844;2022-12-07T16:07:49;1.48;;;1.30;;
20890;SDS011;10605;52.968;8.844;2022-12-07T16:10:15;3.35;;;1.30;;
20890;SDS011;10605;52.968;8.844;2022-12-07T16:12:41;4.03;;;0.93;;
20890;SDS011;10605;52.968;8.844;2022-12-07T16:15:07;7.97;;;1.27;;
20890;SDS011;10605;52.968;8.844;2022-12-07T16:17:33;5.43;;;1.40;;
20890;SDS011;10605;52.968;8.844;2022-12-07T16:19:59;6.20;;;1.00;;
20890;SDS011;10605;52.968;8.844;2022-12-07T16:22:24;3.97;;;1.20;;
20890;SDS011;10605;52.968;8.844;2022-12-07T16:24:50;5.15;;;1.75;;
20890;SDS011;10605;52.968;8.844;2022-12-07T16:27:16;5.40;;;1.50;;
20890;SDS011;10605;52.968;8.844;2022-12-07T16:29:41;6.07;;;1.83;;
20890;SDS011;10605;52.968;8.844;2022-12-07T16:32:07;4.22;;;2.30;;
20890;SDS011;10605;52.968;8.844;2022-12-07T16:34:33;6.20;;;3.35;;
20890;SDS011;10605;52.968;8.844;2022-12-07T16:36:58;5.38;;;3.42;;
20890;SDS011;10605;52.968;8.844;2022-12-07T16:39:24;5.65;;;4.13;;
20890;SDS011;10605;52.968;8.844;2022-12-07T16:41:50;8.88;;;4.03;;
20890;SDS011;10605;52.968;8.844;2022-12-07T16:44:17;11.07;;;3.80;;
20890;SDS011;10605;52.968;8.844;2022-12-07T16:46:45;8.93;;;4.03;;
20890;SDS011;10605;52.968;8.844;2022-12-07T16:49:12;8.60;;;4.95;;
20890;SDS011;10605;52.968;8.844;2022-12-07T16:51:38;11.40;;;6.80;;
20890;SDS011;10605;52.968;8.844;2022-12-07T16:54:05;13.85;;;9.02;;
20890;SDS011;10605;52.968;8.844;2022-12-07T16:56:31;16.67;;;9.68;;
20890;SDS011;10605;52.968;8.844;2022-12-07T16:58:59;15.80;;;9.63;;
20890;SDS011;10605;52.968;8.844;2022-12-07T17:01:26;16.77;;;10.07;;
20890;SDS011;10605;52.968;8.844;2022-12-07T17:03:56;21.85;;;11.23;;
20890;SDS011;10605;52.968;8.844;2022-12-07T17:06:23;21.20;;;9.73;;
20890;SDS011;10605;52.968;8.844;2022-12-07T17:08:50;23.90;;;9.27;;
20890;SDS011;10605;52.968;8.844;2022-12-07T17:13:47;13.70;;;8.30;;
20890;SDS011;10605;52.968;8.844;2022-12-07T17:16:32;8.57;;;7.72;;
20890;SDS011;10605;52.968;8.844;2022-12-07T17:18:59;15.20;;;7.78;;
20890;SDS011;10605;52.968;8.844;2022-12-07T17:21:24;9.23;;;7.50;;
20890;SDS011;10605;52.968;8.844;2022-12-07T17:23:50;17.00;;;7.40;;
20890;SDS011;10605;52.968;8.844;2022-12-07T17:26:23;18.70;;;6.38;;
20890;SDS011;10605;52.968;8.844;2022-12-07T17:28:50;11.38;;;6.50;;
20890;SDS011;10605;52.968;8.844;2022-12-07T17:31:16;15.02;;;6.50;;
20890;SDS011;10605;52.968;8.844;2022-12-07T17:33:43;9.45;;;5.60;;
20890;SDS011;10605;52.968;8.844;2022-12-07T17:36:20;9.52;;;4.63;;
20890;SDS011;10605;52.968;8.844;2022-12-07T17:38:45;11.32;;;4.15;;
20890;SDS011;10605;52.968;8.844;2022-12-07T17:41:16;5.75;;;4.00;;
20890;SDS011;10605;52.968;8.844;2022-12-07T17:44:06;9.85;;;5.07;;